Time;durP1;ratioP1;P1;durP2;ratioP2;P2;SDS_P1;SDS_P2;PMS_P1;PMS_P2;Temp;Humidity;BMP_temperature;BMP_pressure;BME280_temperature;BME280_humidity;BME280_pressure;Samples;Min_cycle;Max_cycle;Signal;HPM_P1;HPM_P2
2022/03/23 00:03:29;;;;;;;32.83;18.80;;;;;5.50;102395.00;;;;10471004;28;20191;-79
2022/03/23 00:08:31;;;;;;;32.97;20.57;;;;;5.40;102386.00;;;;10459611;28;20196;-79
2022/03/23 00:13:33;;;;;;;33.10;20.17;;;;;5.30;102389.00;;;;10505291;28;20678;-79
2022/03/23 00:18:35;;;;;;;34.53;20.03;;;;;5.20;102395.00;;;;10506046;28;20192;-78
2022/03/23 00:23:37;;;;;;;33.43;20.20;;;;;5.20;102390.00;;;;10488701;28;20642;-79
2022/03/23 00:28:39;;;;;;;30.03;19.43;;;;;5.00;102392.00;;;;10488044;28;20582;-78
2022/03/23 00:33:41;;;;;;;34.10;20.50;;;;;5.00;102398.00;;;;10466067;28;20236;-78
2022/03/23 00:38:44;;;;;;;33.83;20.87;;;;;4.90;102397.00;;;;10511776;28;20722;-78
2022/03/23 00:43:47;;;;;;;33.90;20.47;;;;;4.80;102399.00;;;;10504554;28;20184;-78
2022/03/23 00:48:49;;;;;;;36.13;21.13;;;;;4.70;102403.00;;;;10504830;28;20189;-78
2022/03/23 00:53:52;;;;;;;36.57;23.03;;;;;4.70;102396.00;;;;10487978;28;20240;-78
2022/03/23 00:58:54;;;;;;;34.17;21.37;;;;;4.60;102389.00;;;;10488606;28;20193;-79
2022/03/23 01:03:56;;;;;;;36.67;24.07;;;;;4.50;102401.00;;;;10487382;28;20201;-79
2022/03/23 01:08:58;;;;;;;35.43;21.60;;;;;4.50;102400.00;;;;10507889;28;20258;-78
2022/03/23 01:14:00;;;;;;;36.23;22.00;;;;;4.40;102391.00;;;;10512311;28;20201;-78
2022/03/23 01:19:03;;;;;;;35.00;22.07;;;;;4.40;102394.00;;;;10511964;28;20181;-78
2022/03/23 01:24:06;;;;;;;33.50;20.73;;;;;4.30;102392.00;;;;10494458;28;20675;-78
2022/03/23 01:29:08;;;;;;;35.13;18.23;;;;;4.20;102387.00;;;;10511624;28;20568;-78
2022/03/23 01:34:14;;;;;;;34.20;21.67;;;;;4.10;102387.00;;;;10509447;28;20200;-78
2022/03/23 01:39:16;;;;;;;34.83;20.57;;;;;4.00;102382.00;;;;10494501;28;21009;-79
2022/03/23 01:44:20;;;;;;;36.87;21.83;;;;;4.00;102384.00;;;;10526837;28;20202;-78
2022/03/23 01:49:22;;;;;;;35.67;21.60;;;;;4.00;102376.00;;;;10553140;28;20222;-78
2022/03/23 01:54:24;;;;;;;32.10;19.80;;;;;4.00;102376.00;;;;10530263;28;20247;-79
2022/03/23 01:59:27;;;;;;;36.87;22.13;;;;;3.90;102371.00;;;;10510706;28;20188;-78
2022/03/23 02:04:31;;;;;;;33.23;19.80;;;;;3.90;102366.00;;;;10510338;28;20192;-79
2022/03/23 02:09:33;;;;;;;36.43;20.90;;;;;3.80;102369.00;;;;10510386;28;20651;-78
2022/03/23 02:14:40;;;;;;;34.57;20.57;;;;;3.80;102363.00;;;;10510294;28;20990;-79
2022/03/23 02:19:42;;;;;;;31.83;18.83;;;;;3.90;102361.00;;;;10493742;28;20196;-78
2022/03/23 02:24:50;;;;;;;28.03;19.30;;;;;3.90;102370.00;;;;10492605;28;20221;-79
2022/03/23 02:29:53;;;;;;;30.53;18.90;;;;;3.90;102352.00;;;;10491898;28;20247;-78
2022/03/23 02:34:55;;;;;;;33.03;19.03;;;;;3.90;102356.00;;;;10509219;28;20267;-78
2022/03/23 02:39:57;;;;;;;31.50;17.23;;;;;3.90;102348.00;;;;10506342;28;20220;-79
2022/03/23 02:44:59;;;;;;;28.33;17.57;;;;;3.80;102355.00;;;;10509609;28;20193;-79
2022/03/23 02:50:01;;;;;;;30.13;18.47;;;;;3.80;102349.00;;;;10510041;28;20188;-78
2022/03/23 03:06:08;;;;;;;33.40;20.63;;;;;3.70;102368.00;;;;10508072;28;20208;-78
2022/03/23 03:11:10;;;;;;;31.23;20.80;;;;;3.60;102364.00;;;;10475071;28;20242;-78
2022/03/23 03:16:11;;;;;;;36.07;22.17;;;;;3.50;102358.00;;;;10507168;28;20205;-79
2022/03/23 03:21:15;;;;;;;29.73;19.43;;;;;3.40;102355.00;;;;10490722;28;20288;-78
2022/03/23 03:26:18;;;;;;;30.87;18.80;;;;;3.50;102368.00;;;;10506674;28;20239;-78
2022/03/23 03:31:20;;;;;;;27.50;17.80;;;;;3.70;102361.00;;;;10506663;28;20221;-78
2022/03/23 03:36:22;;;;;;;26.77;16.80;;;;;4.00;102376.00;;;;10481672;28;20229;-78
2022/03/23 03:41:24;;;;;;;28.03;17.90;;;;;4.20;102382.00;;;;10448640;28;20198;-78
2022/03/23 03:46:26;;;;;;;29.23;16.20;;;;;4.30;102373.00;;;;10482027;28;20186;-78
2022/03/23 03:51:29;;;;;;;26.20;15.90;;;;;4.30;102381.00;;;;10505548;28;20201;-79
2022/03/23 03:56:31;;;;;;;25.13;15.60;;;;;4.30;102383.00;;;;10505428;28;20567;-78
2022/03/23 04:01:33;;;;;;;25.37;16.00;;;;;4.30;102388.00;;;;10489316;28;20196;-78
2022/03/23 04:06:35;;;;;;;28.20;16.50;;;;;4.30;102393.00;;;;10522209;28;20202;-78
2022/03/23 04:11:38;;;;;;;25.17;17.03;;;;;4.20;102385.00;;;;10488935;28;20247;-78
2022/03/23 04:16:40;;;;;;;36.17;19.03;;;;;3.90;102391.00;;;;10505520;28;20208;-78
2022/03/23 04:21:42;;;;;;;28.87;19.37;;;;;3.70;102393.00;;;;10488488;28;20219;-78
2022/03/23 04:26:44;;;;;;;26.80;17.53;;;;;3.40;102389.00;;;;10513316;28;20711;-78
2022/03/23 04:31:46;;;;;;;28.50;19.33;;;;;3.30;102404.00;;;;10530034;28;20211;-78
2022/03/23 04:36:48;;;;;;;26.73;18.50;;;;;3.20;102408.00;;;;10443292;28;20232;-78
2022/03/23 04:41:50;;;;;;;33.07;19.97;;;;;3.10;102410.00;;;;10480012;28;20674;-79
2022/03/23 04:46:52;;;;;;;29.97;18.97;;;;;3.00;102405.00;;;;10488250;28;20239;-78
2022/03/23 04:51:54;;;;;;;29.27;19.20;;;;;2.90;102396.00;;;;10461292;28;20224;-78
2022/03/23 04:56:56;;;;;;;27.03;18.03;;;;;2.90;102400.00;;;;10495930;28;20254;-79
2022/03/23 05:01:58;;;;;;;31.10;19.37;;;;;2.80;102409.00;;;;10495547;28;20203;-79
2022/03/23 05:07:00;;;;;;;29.13;19.33;;;;;2.80;102408.00;;;;10479341;28;20321;-78
2022/03/23 05:12:02;;;;;;;29.53;17.93;;;;;2.70;102412.00;;;;10496077;28;20821;-79
2022/03/23 05:17:04;;;;;;;30.03;18.47;;;;;2.60;102417.00;;;;10495630;28;20200;-78
2022/03/23 05:22:06;;;;;;;31.83;19.00;;;;;2.50;102416.00;;;;10511450;28;21031;-79
2022/03/23 05:27:09;;;;;;;32.00;18.63;;;;;2.50;102417.00;;;;10512995;28;20283;-79
2022/03/23 05:32:16;;;;;;;31.93;19.73;;;;;2.50;102407.00;;;;10527187;28;20228;-79
2022/03/23 05:37:18;;;;;;;30.40;20.03;;;;;2.40;102416.00;;;;10494518;28;20225;-79
2022/03/23 05:42:20;;;;;;;31.30;19.23;;;;;2.50;102420.00;;;;10512450;28;20217;-79
2022/03/23 05:47:22;;;;;;;31.63;20.87;;;;;2.50;102429.00;;;;10507577;28;20197;-79
2022/03/23 05:52:23;;;;;;;31.07;20.17;;;;;2.50;102431.00;;;;10486299;28;20193;-78
2022/03/23 05:57:25;;;;;;;31.37;19.70;;;;;2.50;102440.00;;;;10507663;28;20236;-79
2022/03/23 06:02:27;;;;;;;29.87;19.40;;;;;2.50;102442.00;;;;10493703;28;20296;-81
2022/03/23 06:07:29;;;;;;;29.60;18.63;;;;;2.70;102442.00;;;;10488255;28;20262;-78
2022/03/23 06:12:32;;;;;;;31.53;19.03;;;;;2.90;102446.00;;;;10502405;28;20196;-78
2022/03/23 06:17:35;;;;;;;35.10;20.63;;;;;3.20;102442.00;;;;10516455;28;20205;-78
2022/03/23 06:22:37;;;;;;;36.70;20.63;;;;;3.70;102445.00;;;;10474926;28;20242;-78
2022/03/23 06:27:39;;;;;;;27.70;18.90;;;;;4.00;102457.00;;;;10513725;28;20218;-78
2022/03/23 06:32:41;;;;;;;31.00;19.33;;;;;4.30;102464.00;;;;10511945;28;20196;-78
2022/03/23 06:37:43;;;;;;;35.67;20.20;;;;;4.70;102477.00;;;;10467524;28;20553;-79
2022/03/23 06:42:45;;;;;;;31.70;21.13;;;;;5.00;102480.00;;;;10521563;28;20188;-78
2022/03/23 06:47:47;;;;;;;31.53;21.07;;;;;5.50;102478.00;;;;10481525;28;20273;-78
2022/03/23 06:52:49;;;;;;;30.73;21.30;;;;;6.00;102482.00;;;;10495998;28;20612;-78
2022/03/23 06:57:51;;;;;;;35.57;20.80;;;;;6.60;102489.00;;;;10509024;28;20232;-79
2022/03/23 07:02:53;;;;;;;35.43;19.97;;;;;7.00;102487.00;;;;10524508;28;20197;-79
2022/03/23 07:13:15;;;;;;;28.80;19.67;;;;;8.10;102494.00;;;;10491203;28;20215;-79
2022/03/23 07:18:17;;;;;;;28.87;18.37;;;;;8.60;102498.00;;;;10506813;28;20319;-79
2022/03/23 07:23:19;;;;;;;28.07;20.23;;;;;9.20;102496.00;;;;10566859;28;20192;-78
2022/03/23 07:28:21;;;;;;;31.03;20.60;;;;;9.70;102504.00;;;;10495952;28;20618;-78
2022/03/23 07:33:23;;;;;;;30.47;20.57;;;;;10.30;102500.00;;;;10491097;28;20193;-79
2022/03/23 07:38:25;;;;;;;34.60;20.40;;;;;10.70;102509.00;;;;10479195;28;20208;-78
2022/03/23 07:43:27;;;;;;;28.70;21.30;;;;;11.00;102503.00;;;;10469241;28;20196;-78
2022/03/23 07:48:29;;;;;;;30.30;20.60;;;;;11.40;102514.00;;;;10489543;28;21002;-78
2022/03/23 07:53:32;;;;;;;32.60;21.57;;;;;11.70;102510.00;;;;10511850;28;20189;-78
2022/03/23 07:58:35;;;;;;;32.83;21.83;;;;;12.00;102519.00;;;;10479781;28;20201;-78
2022/03/23 08:03:37;;;;;;;32.83;21.40;;;;;12.40;102519.00;;;;10481049;28;20193;-78
2022/03/23 08:08:42;;;;;;;36.70;22.17;;;;;12.90;102523.00;;;;10476097;28;20422;-78
2022/03/23 08:13:44;;;;;;;36.90;22.97;;;;;13.20;102523.00;;;;10494523;28;20184;-78
2022/03/23 08:18:46;;;;;;;33.80;21.43;;;;;13.70;102521.00;;;;10528204;28;20245;-78
2022/03/23 08:23:48;;;;;;;35.07;22.67;;;;;14.20;102530.00;;;;10481252;28;20559;-78
2022/03/23 08:28:51;;;;;;;38.63;23.70;;;;;14.70;102523.00;;;;10502575;28;20279;-78
2022/03/23 08:33:54;;;;;;;37.50;23.20;;;;;15.20;102530.00;;;;10501086;28;20204;-78
2022/03/23 08:38:56;;;;;;;36.57;25.17;;;;;15.70;102537.00;;;;10506031;28;20221;-77
2022/03/23 08:43:59;;;;;;;38.00;25.10;;;;;16.30;102531.00;;;;10530430;28;20197;-76
2022/03/23 08:49:01;;;;;;;39.58;24.85;;;;;16.80;102532.00;;;;10492497;28;20202;-76
2022/03/23 08:54:04;;;;;;;37.05;24.65;;;;;17.20;102532.00;;;;10503971;28;20287;-76
2022/03/23 08:59:06;;;;;;;38.75;26.05;;;;;17.80;102534.00;;;;10490471;28;20677;-76
2022/03/23 09:04:08;;;;;;;34.78;26.15;;;;;18.10;102525.00;;;;10519293;28;20203;-76
2022/03/23 09:09:10;;;;;;;45.85;27.67;;;;;18.50;102532.00;;;;10503406;28;20250;-76
2022/03/23 09:14:12;;;;;;;40.58;28.85;;;;;19.20;102534.00;;;;10490246;28;20220;-77
2022/03/23 09:19:19;;;;;;;42.05;29.02;;;;;19.60;102541.00;;;;10505918;28;20200;-76
2022/03/23 09:24:22;;;;;;;38.63;27.90;;;;;20.00;102541.00;;;;10488958;28;20185;-76
2022/03/23 09:29:24;;;;;;;38.65;27.63;;;;;20.40;102533.00;;;;10525077;28;20192;-77
2022/03/23 09:34:26;;;;;;;39.78;28.85;;;;;20.90;102536.00;;;;10519710;28;20226;-76
2022/03/23 09:39:28;;;;;;;46.85;29.83;;;;;21.20;102531.00;;;;10485352;28;20940;-76
2022/03/23 09:44:30;;;;;;;39.47;27.38;;;;;21.50;102537.00;;;;10505515;28;20200;-77
2022/03/23 09:49:32;;;;;;;41.13;26.70;;;;;21.80;102535.00;;;;10509719;28;20204;-76
2022/03/23 09:54:34;;;;;;;44.53;28.13;;;;;22.10;102533.00;;;;10471070;28;20652;-76
2022/03/23 09:59:36;;;;;;;39.60;28.17;;;;;22.50;102542.00;;;;10524055;28;20197;-77
2022/03/23 10:04:47;;;;;;;43.42;29.10;;;;;22.70;102538.00;;;;10537317;28;20197;-77
2022/03/23 10:10:27;;;;;;;46.58;29.67;;;;;23.00;102537.00;;;;10519345;28;20203;-77
2022/03/23 10:16:06;;;;;;;43.08;28.02;;;;;23.20;102541.00;;;;10487902;28;20205;-77
2022/03/23 10:21:08;;;;;;;43.72;28.92;;;;;23.30;102545.00;;;;10516145;28;20552;-77
2022/03/23 10:26:12;;;;;;;42.25;28.05;;;;;23.60;102543.00;;;;10499027;28;20189;-77
2022/03/23 10:31:20;;;;;;;37.83;26.27;;;;;23.70;102541.00;;;;10494141;28;20554;-76
2022/03/23 10:36:23;;;;;;;36.10;26.13;;;;;24.00;102544.00;;;;10503568;28;20244;-77
2022/03/23 10:41:27;;;;;;;38.72;26.90;;;;;24.10;102540.00;;;;10532013;28;20240;-77
2022/03/23 10:46:29;;;;;;;39.30;27.98;;;;;24.30;102541.00;;;;10498782;28;20188;-77
2022/03/23 10:51:33;;;;;;;36.63;27.27;;;;;24.60;102535.00;;;;10519466;28;20575;-77
2022/03/23 10:56:38;;;;;;;41.13;29.42;;;;;24.80;102537.00;;;;10503069;28;20215;-77
2022/03/23 11:02:00;;;;;;;41.60;28.00;;;;;24.80;102536.00;;;;10486301;28;20188;-77
2022/03/23 11:07:02;;;;;;;42.60;28.33;;;;;25.00;102534.00;;;;10498698;28;20209;-77
2022/03/23 11:17:29;;;;;;;36.78;26.58;;;;;25.30;102542.00;;;;10500388;28;20207;-77
2022/03/23 11:22:31;;;;;;;36.55;27.45;;;;;25.50;102536.00;;;;10498627;28;20208;-77
2022/03/23 11:27:35;;;;;;;29.85;24.80;;;;;25.80;102534.00;;;;10508044;28;20181;-77
2022/03/23 11:32:39;;;;;;;34.45;25.65;;;;;25.50;102524.00;;;;10521428;28;20192;-77
2022/03/23 11:37:43;;;;;;;30.63;24.40;;;;;25.20;102530.00;;;;10523043;28;20228;-77
2022/03/23 11:42:46;;;;;;;36.63;24.83;;;;;25.40;102517.00;;;;10504745;28;20189;-77
2022/03/23 11:47:58;;;;;;;28.73;23.63;;;;;25.40;102513.00;;;;10512546;28;20189;-77
2022/03/23 11:53:32;;;;;;;31.48;23.52;;;;;25.30;102505.00;;;;10550817;28;20196;-76
2022/03/23 11:58:37;;;;;;;27.52;23.35;;;;;25.70;102507.00;;;;10488911;28;20958;-77
2022/03/23 12:04:00;;;;;;;29.10;23.77;;;;;25.90;102497.00;;;;10502978;28;20193;-78
2022/03/23 12:09:06;;;;;;;30.33;22.65;;;;;26.10;102496.00;;;;10473957;28;20188;-78
2022/03/23 12:14:23;;;;;;;31.98;24.08;;;;;26.00;102491.00;;;;10498993;28;20198;-78
2022/03/23 12:19:31;;;;;;;21.65;16.95;;;;;26.30;102492.00;;;;10515751;28;20283;-78
2022/03/23 12:25:12;;;;;;;23.55;18.23;;;;;26.30;102488.00;;;;10502480;28;20200;-78
2022/03/23 12:30:22;;;;;;;29.60;18.58;;;;;26.50;102477.00;;;;10500734;28;20673;-78
2022/03/23 12:35:32;;;;;;;25.48;20.48;;;;;26.60;102478.00;;;;10521786;28;20201;-78
2022/03/23 12:40:40;;;;;;;23.15;16.33;;;;;26.60;102462.00;;;;10538032;28;20208;-77
2022/03/23 12:45:43;;;;;;;24.40;18.67;;;;;25.60;102463.00;;;;10511847;28;20223;-78
2022/03/23 13:01:39;;;;;;;19.63;14.75;;;;;25.60;102443.00;;;;10516140;28;20227;-78
2022/03/23 13:06:42;;;;;;;23.45;14.88;;;;;26.10;102446.00;;;;10485824;28;20189;-77
2022/03/23 13:11:56;;;;;;;21.63;14.40;;;;;26.40;102448.00;;;;10541523;28;20197;-77
2022/03/23 13:17:00;;;;;;;19.50;13.85;;;;;26.50;102437.00;;;;10513320;28;20197;-77
2022/03/23 13:22:02;;;;;;;17.95;13.82;;;;;26.10;102437.00;;;;10502670;28;20189;-77
2022/03/23 13:27:12;;;;;;;21.90;15.05;;;;;26.80;102436.00;;;;10487526;28;20181;-77
2022/03/23 13:32:14;;;;;;;18.63;13.25;;;;;27.40;102428.00;;;;10492911;28;20200;-77
2022/03/23 13:37:16;;;;;;;17.85;13.48;;;;;28.50;102417.00;;;;10508112;28;20221;-78
2022/03/23 13:47:43;;;;;;;17.88;10.80;;;;;30.30;102386.00;;;;10487787;28;20196;-78
2022/03/23 13:52:45;;;;;;;16.98;12.85;;;;;30.90;102385.00;;;;10524553;28;20195;-77
2022/03/23 13:57:50;;;;;;;18.42;11.98;;;;;31.30;102369.00;;;;10539945;28;20280;-77
2022/03/23 14:02:53;;;;;;;19.48;11.85;;;;;31.70;102355.00;;;;10469905;28;20266;-78
2022/03/23 14:07:57;;;;;;;21.25;12.48;;;;;31.80;102359.00;;;;10500547;28;20189;-77
2022/03/23 14:13:03;;;;;;;22.13;12.85;;;;;31.70;102339.00;;;;10469409;28;20571;-76
2022/03/23 14:18:10;;;;;;;16.88;11.95;;;;;31.40;102331.00;;;;10511143;28;20229;-77
2022/03/23 14:23:14;;;;;;;19.58;12.68;;;;;31.60;102332.00;;;;10529348;28;20181;-76
2022/03/23 14:28:19;;;;;;;18.58;13.07;;;;;28.90;102378.00;;;;10507897;28;20181;-76
2022/03/23 14:33:22;;;;;;;20.90;13.27;;;;;28.20;102317.00;;;;10507902;28;20184;-76
2022/03/23 14:38:26;;;;;;;17.65;12.30;;;;;28.40;102339.00;;;;10520278;28;20213;-76
2022/03/23 14:43:42;;;;;;;16.90;10.75;;;;;29.10;102329.00;;;;10512094;28;20247;-77
2022/03/23 14:48:44;;;;;;;17.88;12.48;;;;;27.10;102340.00;;;;10507893;28;20178;-77
2022/03/23 14:53:47;;;;;;;16.45;12.23;;;;;26.30;102346.00;;;;10535631;28;20185;-77
2022/03/23 14:58:49;;;;;;;16.67;11.68;;;;;25.50;102332.00;;;;10472392;28;20232;-76
2022/03/23 15:03:53;;;;;;;14.38;10.98;;;;;26.70;102329.00;;;;10485686;28;20189;-76
2022/03/23 15:14:15;;;;;;;19.65;12.38;;;;;25.90;102332.00;;;;10473558;28;20223;-77
2022/03/23 15:19:17;;;;;;;16.10;11.15;;;;;26.10;102322.00;;;;10484661;28;20660;-77
2022/03/23 15:24:20;;;;;;;15.55;10.75;;;;;25.70;102319.00;;;;10506957;28;20615;-75
2022/03/23 15:29:22;;;;;;;17.17;11.30;;;;;25.10;102332.00;;;;10530587;28;20360;-76
2022/03/23 15:34:23;;;;;;;18.85;12.75;;;;;26.10;102310.00;;;;10503423;28;20181;-76
2022/03/23 15:39:25;;;;;;;18.17;11.07;;;;;25.00;102328.00;;;;10521862;28;20249;-76
2022/03/23 15:44:28;;;;;;;19.42;11.55;;;;;24.70;102327.00;;;;10497078;28;20193;-77
2022/03/23 15:49:30;;;;;;;16.02;12.20;;;;;24.60;102332.00;;;;10496246;28;20275;-77
2022/03/23 15:54:31;;;;;;;16.55;11.18;;;;;22.40;102334.00;;;;10503583;28;20206;-77
2022/03/23 15:59:33;;;;;;;14.88;10.93;;;;;21.70;102336.00;;;;10504666;28;20254;-78
2022/03/23 16:04:38;;;;;;;15.20;11.40;;;;;21.00;102331.00;;;;10519289;28;20193;-77
2022/03/23 16:09:46;;;;;;;18.75;12.13;;;;;20.40;102327.00;;;;10498080;28;20241;-77
2022/03/23 16:14:48;;;;;;;17.75;11.35;;;;;20.00;102341.00;;;;10487563;28;20208;-77
2022/03/23 16:19:50;;;;;;;13.77;10.30;;;;;19.70;102331.00;;;;10487473;28;20193;-77
2022/03/23 16:24:52;;;;;;;18.42;11.27;;;;;19.40;102331.00;;;;10509119;28;20196;-77
2022/03/23 16:29:54;;;;;;;25.00;15.57;;;;;19.40;102335.00;;;;10524635;28;20196;-77
2022/03/23 16:34:57;;;;;;;25.48;15.80;;;;;19.20;102342.00;;;;10493067;28;20199;-77
2022/03/23 16:39:59;;;;;;;18.02;11.10;;;;;19.00;102345.00;;;;10496331;28;20221;-78
2022/03/23 16:45:02;;;;;;;18.77;12.18;;;;;18.80;102339.00;;;;10485020;28;20215;-77
2022/03/23 16:50:05;;;;;;;19.08;11.10;;;;;18.70;102345.00;;;;10543095;28;20812;-77
2022/03/23 16:55:08;;;;;;;17.38;10.35;;;;;18.50;102343.00;;;;10512124;28;20192;-77
2022/03/23 17:00:11;;;;;;;15.18;10.10;;;;;18.30;102343.00;;;;10499958;28;20192;-78
2022/03/23 17:15:54;;;;;;;16.30;10.27;;;;;17.60;102345.00;;;;10511008;28;20204;-77
2022/03/23 17:20:56;;;;;;;15.82;10.60;;;;;17.30;102355.00;;;;10510492;28;20220;-78
2022/03/23 17:25:58;;;;;;;16.58;9.98;;;;;17.10;102357.00;;;;10486205;28;20290;-77
2022/03/23 17:31:01;;;;;;;17.77;11.32;;;;;16.80;102360.00;;;;10510349;28;20983;-77
2022/03/23 17:36:03;;;;;;;16.90;11.07;;;;;16.40;102361.00;;;;10518487;28;20568;-76
2022/03/23 17:41:05;;;;;;;19.30;11.73;;;;;16.00;102353.00;;;;10492573;28;20643;-76
2022/03/23 17:46:07;;;;;;;20.37;11.50;;;;;15.60;102353.00;;;;10510265;28;20185;-77
2022/03/23 17:51:09;;;;;;;21.33;11.47;;;;;15.20;102354.00;;;;10523614;28;20203;-77
2022/03/23 17:56:12;;;;;;;20.70;12.93;;;;;14.90;102360.00;;;;10475295;28;20622;-77
2022/03/23 18:01:15;;;;;;;26.83;13.50;;;;;14.60;102362.00;;;;10506329;28;20204;-77
2022/03/23 18:06:17;;;;;;;20.30;12.43;;;;;14.30;102369.00;;;;10496725;28;20188;-77
2022/03/23 18:11:19;;;;;;;26.07;12.73;;;;;14.10;102366.00;;;;10494471;28;20189;-77
2022/03/23 18:16:22;;;;;;;25.17;12.67;;;;;13.80;102372.00;;;;10508495;28;20254;-77
2022/03/23 18:21:24;;;;;;;23.87;13.40;;;;;13.60;102377.00;;;;10493513;28;20184;-77
2022/03/23 18:26:27;;;;;;;22.47;13.43;;;;;13.40;102383.00;;;;10508993;28;20243;-76
2022/03/23 18:31:30;;;;;;;24.53;12.37;;;;;13.10;102385.00;;;;10476280;28;20200;-77
2022/03/23 18:36:32;;;;;;;30.60;15.00;;;;;12.90;102382.00;;;;10503307;28;20224;-77
2022/03/23 18:41:34;;;;;;;26.20;14.07;;;;;12.70;102394.00;;;;10543066;28;20188;-77
2022/03/23 18:46:36;;;;;;;26.77;14.20;;;;;12.50;102403.00;;;;10508341;28;20185;-77
2022/03/23 18:51:39;;;;;;;25.53;13.30;;;;;12.50;102409.00;;;;10525567;28;20211;-77
2022/03/23 18:56:41;;;;;;;22.00;13.93;;;;;12.40;102412.00;;;;10450441;28;20202;-77
2022/03/23 19:01:43;;;;;;;21.00;13.97;;;;;12.20;102411.00;;;;10494613;28;20580;-77
2022/03/23 19:06:49;;;;;;;25.20;14.70;;;;;12.00;102408.00;;;;10509877;28;20547;-76
2022/03/23 19:11:51;;;;;;;32.27;16.07;;;;;11.90;102417.00;;;;10495614;28;20296;-77
2022/03/23 19:16:54;;;;;;;30.03;17.87;;;;;11.80;102405.00;;;;10488830;28;20335;-77
2022/03/23 19:21:56;;;;;;;29.33;17.67;;;;;11.70;102421.00;;;;10490027;28;20224;-77
2022/03/23 19:26:58;;;;;;;31.43;19.17;;;;;11.60;102423.00;;;;10464888;28;20235;-77
2022/03/23 19:32:00;;;;;;;32.47;19.93;;;;;11.50;102419.00;;;;10503163;28;20200;-76
2022/03/23 19:37:05;;;;;;;32.40;18.57;;;;;11.40;102426.00;;;;10479168;28;20225;-77
2022/03/23 19:42:07;;;;;;;32.97;22.20;;;;;11.20;102426.00;;;;10523857;28;20677;-77
2022/03/23 19:47:09;;;;;;;32.17;20.37;;;;;11.00;102424.00;;;;10485680;28;20643;-77
2022/03/23 19:52:11;;;;;;;35.30;19.53;;;;;10.90;102435.00;;;;10489327;28;20188;-77
2022/03/23 19:57:13;;;;;;;37.73;20.87;;;;;10.70;102427.00;;;;10472545;28;20437;-77
2022/03/23 20:02:15;;;;;;;31.30;19.90;;;;;10.60;102436.00;;;;10488427;28;20193;-77
2022/03/23 20:07:18;;;;;;;40.60;25.93;;;;;10.40;102427.00;;;;10489325;28;20226;-78
2022/03/23 20:12:20;;;;;;;30.70;19.93;;;;;10.30;102422.00;;;;10505759;28;20196;-78
2022/03/23 20:17:23;;;;;;;33.20;20.60;;;;;10.10;102425.00;;;;10488592;28;20239;-77
2022/03/23 20:22:28;;;;;;;38.07;22.17;;;;;10.00;102427.00;;;;10505721;28;20185;-78
2022/03/23 20:27:30;;;;;;;33.03;20.93;;;;;9.90;102425.00;;;;10488788;28;20196;-76
2022/03/23 20:32:32;;;;;;;38.07;22.13;;;;;9.70;102416.00;;;;10505259;28;20193;-76
2022/03/23 20:37:34;;;;;;;37.03;23.10;;;;;9.50;102434.00;;;;10500438;28;20228;-76
2022/03/23 20:42:36;;;;;;;35.67;21.47;;;;;9.40;102429.00;;;;10511693;28;20224;-77
2022/03/23 20:47:39;;;;;;;39.23;23.07;;;;;9.30;102430.00;;;;10488301;28;20599;-77
2022/03/23 20:52:42;;;;;;;42.20;24.87;;;;;9.20;102427.00;;;;10504576;28;20635;-77
2022/03/23 20:57:44;;;;;;;45.63;24.33;;;;;9.10;102424.00;;;;10487152;28;20209;-76
2022/03/23 21:02:46;;;;;;;40.03;23.30;;;;;9.10;102432.00;;;;10509942;28;20262;-76
2022/03/23 21:07:53;;;;;;;41.57;25.67;;;;;9.00;102430.00;;;;10505290;28;20292;-76
2022/03/23 21:12:55;;;;;;;37.90;24.77;;;;;8.80;102434.00;;;;10470961;28;20247;-77
2022/03/23 21:17:57;;;;;;;41.17;23.30;;;;;8.80;102430.00;;;;10471221;28;20209;-77
2022/03/23 21:22:59;;;;;;;43.97;25.00;;;;;8.70;102439.00;;;;10487450;28;20201;-76
2022/03/23 21:28:02;;;;;;;58.63;29.93;;;;;8.60;102436.00;;;;10485669;28;20224;-77
2022/03/23 21:33:04;;;;;;;46.27;25.23;;;;;8.50;102440.00;;;;10469727;28;20197;-76
2022/03/23 21:38:07;;;;;;;38.30;23.63;;;;;8.40;102438.00;;;;10484342;28;20753;-77
2022/03/23 21:43:09;;;;;;;43.93;25.83;;;;;8.30;102441.00;;;;10526446;28;20291;-76
2022/03/23 21:48:11;;;;;;;41.50;24.67;;;;;8.20;102453.00;;;;10477817;28;20192;-77
2022/03/23 21:53:13;;;;;;;42.37;25.70;;;;;8.10;102447.00;;;;10511683;28;20677;-77
2022/03/23 21:58:15;;;;;;;45.63;24.17;;;;;8.00;102445.00;;;;10495220;28;20208;-77
2022/03/23 22:03:17;;;;;;;51.13;25.33;;;;;7.90;102437.00;;;;10494811;28;20193;-77
2022/03/23 22:08:19;;;;;;;40.00;23.67;;;;;7.90;102440.00;;;;10510927;28;20246;-77
2022/03/23 22:13:21;;;;;;;42.20;25.43;;;;;7.80;102443.00;;;;10493955;28;20192;-76
2022/03/23 22:18:23;;;;;;;39.07;23.77;;;;;7.70;102444.00;;;;10494272;28;20208;-78
2022/03/23 22:23:25;;;;;;;41.90;23.87;;;;;7.60;102437.00;;;;10492687;28;20221;-79
2022/03/23 22:28:28;;;;;;;47.27;26.93;;;;;7.60;102431.00;;;;10463092;28;20193;-78
2022/03/23 22:33:29;;;;;;;44.93;24.73;;;;;7.50;102442.00;;;;10461390;28;20242;-78
2022/03/23 22:38:32;;;;;;;46.57;26.03;;;;;7.40;102438.00;;;;10463384;28;20217;-78
2022/03/23 22:43:37;;;;;;;47.60;25.00;;;;;7.30;102435.00;;;;10488278;28;20208;-79
2022/03/23 22:48:41;;;;;;;45.00;26.13;;;;;7.20;102432.00;;;;10493591;28;20424;-79
2022/03/23 22:53:43;;;;;;;46.13;26.43;;;;;7.10;102430.00;;;;10490968;28;20203;-79
2022/03/23 22:58:45;;;;;;;42.40;24.20;;;;;7.00;102426.00;;;;10505546;28;20228;-78
2022/03/23 23:03:47;;;;;;;42.87;25.40;;;;;6.90;102430.00;;;;10465587;28;20196;-79
2022/03/23 23:08:49;;;;;;;47.93;26.23;;;;;6.80;102429.00;;;;10518121;28;20180;-79
2022/03/23 23:13:52;;;;;;;52.70;27.40;;;;;6.80;102435.00;;;;10533938;28;20180;-79
2022/03/23 23:18:54;;;;;;;43.37;26.13;;;;;6.70;102428.00;;;;10516373;28;20244;-79
2022/03/23 23:23:56;;;;;;;47.17;25.97;;;;;6.60;102419.00;;;;10549194;28;20189;-79
2022/03/23 23:29:03;;;;;;;45.93;26.60;;;;;6.50;102415.00;;;;10495345;28;20193;-79
2022/03/23 23:34:05;;;;;;;41.67;24.93;;;;;6.40;102412.00;;;;10471846;28;20201;-79
2022/03/23 23:39:06;;;;;;;43.47;26.77;;;;;6.40;102411.00;;;;10490025;28;20212;-79
2022/03/23 23:44:15;;;;;;;45.77;25.73;;;;;6.30;102406.00;;;;10523533;28;20189;-79
2022/03/23 23:49:19;;;;;;;44.53;26.33;;;;;6.20;102411.00;;;;10505810;28;20200;-79
2022/03/23 23:54:21;;;;;;;42.87;25.93;;;;;6.10;102420.00;;;;10472644;28;20193;-79
2022/03/23 23:59:23;;;;;;;50.50;26.97;;;;;6.00;102410.00;;;;10473009;28;20213;-78
